Time;durP1;ratioP1;P1;durP2;ratioP2;P2;SDS_P1;SDS_P2;PMS_P1;PMS_P2;Temp;Humidity;BMP_temperature;BMP_pressure;BME280_temperature;BME280_humidity;BME280_pressure;Samples;Min_cycle;Max_cycle;Signal;HPM_P1;HPM_P2
2023/01/06 00:01:07;;;;;;;3.15;2.83;;;9.40;87.60;;;;;;5036721;28;20031;-65
2023/01/06 00:03:33;;;;;;;3.20;2.67;;;9.40;87.60;;;;;;5042605;28;20041;-68
2023/01/06 00:06:00;;;;;;;3.03;2.70;;;9.30;87.30;;;;;;5041580;28;20110;-50
2023/01/06 00:08:26;;;;;;;3.38;3.05;;;9.40;87.40;;;;;;5033806;28;20029;-55
2023/01/06 00:10:52;;;;;;;3.28;2.97;;;9.30;87.40;;;;;;5030477;28;20132;-70
2023/01/06 00:13:17;;;;;;;3.47;2.85;;;9.30;87.40;;;;;;5043682;28;20037;-68
2023/01/06 00:15:43;;;;;;;4.00;2.83;;;9.30;87.50;;;;;;5044147;28;20025;-64
2023/01/06 00:18:09;;;;;;;3.22;2.85;;;9.20;87.50;;;;;;5043586;28;20040;-70
2023/01/06 00:20:34;;;;;;;2.67;2.47;;;9.20;87.50;;;;;;5043507;28;20029;-52
2023/01/06 00:23:00;;;;;;;3.65;2.75;;;9.20;87.60;;;;;;5033801;28;20365;-48
2023/01/06 00:25:26;;;;;;;3.38;2.97;;;9.20;87.50;;;;;;5033108;28;20426;-56
2023/01/06 00:27:51;;;;;;;3.00;2.78;;;9.20;87.60;;;;;;5033460;28;20068;-54
2023/01/06 00:30:17;;;;;;;3.10;2.80;;;9.20;87.60;;;;;;5033428;28;20030;-56
2023/01/06 00:32:42;;;;;;;3.13;2.60;;;9.20;87.80;;;;;;5033493;28;20168;-56
2023/01/06 00:35:08;;;;;;;3.10;2.80;;;9.20;87.80;;;;;;5032563;28;20021;-56
2023/01/06 00:37:34;;;;;;;3.13;2.83;;;9.20;87.90;;;;;;5052622;28;20041;-64
2023/01/06 00:40:00;;;;;;;3.85;3.13;;;9.20;87.80;;;;;;5045022;28;20482;-69
2023/01/06 00:42:25;;;;;;;3.80;2.92;;;9.20;87.60;;;;;;5034756;28;20124;-67
2023/01/06 00:44:51;;;;;;;3.63;2.88;;;9.20;87.60;;;;;;5032992;28;20372;-66
2023/01/06 00:47:17;;;;;;;4.30;3.13;;;9.20;87.60;;;;;;5032867;28;20551;-58
2023/01/06 00:49:43;;;;;;;3.08;2.80;;;9.20;87.60;;;;;;5032887;28;20014;-58
2023/01/06 00:52:09;;;;;;;3.13;2.83;;;9.30;87.80;;;;;;5031852;28;20040;-52
2023/01/06 00:54:35;;;;;;;3.88;3.38;;;9.30;87.80;;;;;;5034169;28;20057;-50
2023/01/06 00:57:04;;;;;;;4.95;3.63;;;9.40;87.70;;;;;;5036981;28;20028;-54
2023/01/06 00:59:30;;;;;;;2.92;2.65;;;9.50;87.60;;;;;;5033867;28;20021;-53
2023/01/06 01:01:56;;;;;;;3.65;3.13;;;9.50;87.30;;;;;;5026387;28;20117;-58
2023/01/06 01:04:23;;;;;;;3.25;2.95;;;9.60;87.20;;;;;;5030934;28;20036;-60
2023/01/06 01:06:50;;;;;;;3.20;2.90;;;9.60;86.90;;;;;;5031685;28;20021;-56
2023/01/06 01:09:22;;;;;;;3.67;3.20;;;9.70;86.70;;;;;;5031075;28;20045;-53
2023/01/06 01:14:32;;;;;;;3.63;3.00;;;9.60;86.40;;;;;;5021114;28;19916;-54
2023/01/06 01:16:58;;;;;;;3.50;3.10;;;9.60;86.60;;;;;;5032058;28;20120;-54
2023/01/06 01:19:24;;;;;;;4.30;2.85;;;9.60;86.60;;;;;;5032343;28;20098;-52
2023/01/06 01:21:50;;;;;;;4.03;3.03;;;9.60;86.50;;;;;;5031890;28;20388;-48
2023/01/06 01:24:16;;;;;;;3.38;3.08;;;9.50;86.40;;;;;;5032627;28;20040;-49
2023/01/06 01:26:42;;;;;;;3.35;3.05;;;9.50;86.60;;;;;;5030945;28;20479;-54
2023/01/06 01:29:13;;;;;;;3.15;2.85;;;9.50;86.80;;;;;;5027319;28;20029;-51
2023/01/06 01:31:39;;;;;;;4.10;3.00;;;9.50;86.70;;;;;;5031646;28;20074;-51
2023/01/06 01:34:05;;;;;;;3.20;2.83;;;9.50;86.80;;;;;;5030742;28;20045;-48
2023/01/06 01:36:30;;;;;;;3.00;2.70;;;9.40;86.80;;;;;;5031287;28;20021;-55
2023/01/06 01:38:56;;;;;;;2.90;2.63;;;9.40;86.90;;;;;;5042441;28;20021;-51
2023/01/06 01:41:23;;;;;;;4.40;2.85;;;9.40;87.00;;;;;;5028542;28;20029;-51
2023/01/06 01:44:01;;;;;;;4.13;3.15;;;9.40;86.90;;;;;;5031716;28;20491;-53
2023/01/06 01:46:30;;;;;;;3.38;3.08;;;9.40;86.80;;;;;;5031876;28;20036;-61
2023/01/06 01:49:18;;;;;;;4.03;2.90;;;9.40;86.90;;;;;;5031644;28;20040;-67
2023/01/06 01:51:46;;;;;;;3.30;2.70;;;9.40;86.90;;;;;;5019657;28;20119;-55
2023/01/06 01:54:15;;;;;;;3.42;2.90;;;9.30;87.10;;;;;;5031462;28;20033;-56
2023/01/06 01:56:45;;;;;;;3.58;2.72;;;9.30;87.20;;;;;;5031441;28;20033;-53
2023/01/06 01:59:20;;;;;;;4.25;3.00;;;9.20;87.20;;;;;;5029651;28;20133;-53
2023/01/06 02:01:46;;;;;;;4.18;3.17;;;9.20;87.20;;;;;;5031717;28;20196;-50
2023/01/06 02:04:14;;;;;;;3.13;2.83;;;9.20;87.40;;;;;;5031590;28;20132;-48
2023/01/06 02:06:40;;;;;;;3.70;2.97;;;9.10;87.40;;;;;;5032111;28;20033;-48
2023/01/06 02:09:19;;;;;;;3.55;2.72;;;9.10;87.50;;;;;;5028634;28;20025;-47
2023/01/06 02:11:46;;;;;;;3.25;2.53;;;9.00;87.50;;;;;;5031232;28;20029;-48
2023/01/06 02:14:21;;;;;;;3.13;2.70;;;9.00;87.80;;;;;;5030490;28;20040;-47
2023/01/06 02:17:11;;;;;;;4.32;3.08;;;8.90;87.70;;;;;;5030254;28;20053;-53
2023/01/06 02:19:54;;;;;;;3.10;2.50;;;8.90;87.70;;;;;;5023503;28;20057;-51
2023/01/06 02:22:57;;;;;;;3.05;2.75;;;8.90;87.80;;;;;;5031171;28;20034;-53
2023/01/06 02:25:43;;;;;;;2.60;2.40;;;8.80;87.60;;;;;;5036570;28;20091;-57
2023/01/06 02:28:27;;;;;;;3.00;2.45;;;8.80;87.90;;;;;;5035073;28;20025;-56
2023/01/06 02:31:11;;;;;;;2.75;2.30;;;8.80;88.00;;;;;;5035963;28;20029;-67
2023/01/06 02:33:55;;;;;;;3.25;2.80;;;8.80;88.10;;;;;;5035532;28;20037;-62
2023/01/06 02:36:43;;;;;;;3.13;2.60;;;8.80;88.10;;;;;;5034417;28;20037;-52
2023/01/06 02:39:22;;;;;;;2.78;2.47;;;8.70;88.30;;;;;;5035463;28;20037;-52
2023/01/06 02:41:47;;;;;;;2.85;2.50;;;8.70;88.30;;;;;;5033982;28;20029;-54
2023/01/06 02:44:35;;;;;;;2.75;2.45;;;8.70;88.40;;;;;;5035469;28;20044;-53
2023/01/06 02:47:23;;;;;;;2.70;2.45;;;8.70;88.40;;;;;;5022775;28;20034;-57
2023/01/06 02:50:13;;;;;;;2.70;2.47;;;8.70;88.40;;;;;;5034344;28;20033;-57
2023/01/06 02:53:04;;;;;;;2.47;2.17;;;8.60;88.40;;;;;;5025135;28;20033;-57
2023/01/06 02:55:44;;;;;;;3.47;2.30;;;8.60;88.50;;;;;;5034840;28;20025;-63
2023/01/06 02:58:22;;;;;;;3.10;2.22;;;8.60;88.70;;;;;;5040723;28;20025;-70
2023/01/06 03:01:29;;;;;;;2.30;2.10;;;8.60;88.70;;;;;;5041721;28;20034;-54
2023/01/06 03:04:00;;;;;;;2.42;2.22;;;8.50;88.60;;;;;;5001069;28;20057;-48
2023/01/06 03:06:30;;;;;;;2.50;2.30;;;8.50;88.80;;;;;;5012902;28;20042;-56
2023/01/06 03:08:57;;;;;;;3.55;2.40;;;8.50;89.00;;;;;;5020957;28;20087;-54
2023/01/06 03:11:25;;;;;;;2.63;2.28;;;8.50;89.10;;;;;;5034804;28;20452;-55
2023/01/06 03:14:01;;;;;;;2.85;2.25;;;8.50;89.10;;;;;;5033002;28;20112;-56
2023/01/06 03:16:27;;;;;;;2.47;2.28;;;8.50;89.10;;;;;;5034765;28;20037;-52
2023/01/06 03:18:54;;;;;;;2.33;2.22;;;8.40;89.20;;;;;;5034980;28;20029;-50
2023/01/06 03:21:24;;;;;;;2.42;2.20;;;8.40;89.40;;;;;;5034299;28;20448;-50
2023/01/06 03:23:51;;;;;;;2.00;1.90;;;8.40;89.50;;;;;;5033741;28;20036;-51
2023/01/06 03:26:17;;;;;;;2.20;2.00;;;8.40;89.50;;;;;;5034428;28;20350;-52
2023/01/06 03:28:43;;;;;;;2.78;2.50;;;8.40;89.60;;;;;;5032293;28;20160;-54
2023/01/06 03:31:33;;;;;;;2.28;2.08;;;8.40;89.60;;;;;;5034373;28;20498;-70
2023/01/06 03:34:10;;;;;;;3.28;2.38;;;8.40;89.50;;;;;;5031820;28;20041;-69
2023/01/06 03:36:36;;;;;;;2.80;2.60;;;8.40;89.60;;;;;;5038875;28;20116;-52
2023/01/06 03:39:04;;;;;;;3.45;2.53;;;8.50;89.80;;;;;;5032599;28;20113;-53
2023/01/06 03:43:10;;;;;;;2.35;2.15;;;8.50;89.70;;;;;;5034029;28;20026;-65
2023/01/06 03:44:28;;;;;;;2.67;2.47;;;8.50;89.70;;;;;;5034304;28;20457;-66
2023/01/06 03:47:04;;;;;;;2.30;2.00;;;8.40;89.60;;;;;;5033705;28;20029;-66
2023/01/06 03:49:41;;;;;;;2.33;2.13;;;8.50;89.50;;;;;;5021892;28;20028;-65
2023/01/06 03:52:28;;;;;;;2.78;2.58;;;8.40;89.50;;;;;;5035697;28;20070;-54
2023/01/06 03:55:02;;;;;;;2.53;2.33;;;8.50;89.40;;;;;;5034198;28;20159;-53
2023/01/06 03:57:35;;;;;;;2.85;2.58;;;8.40;89.50;;;;;;5034671;28;20056;-61
2023/01/06 04:00:09;;;;;;;2.83;2.50;;;8.50;89.50;;;;;;5034423;28;20391;-64
2023/01/06 04:02:37;;;;;;;2.90;2.60;;;8.40;89.60;;;;;;5022862;28;20460;-65
2023/01/06 04:05:16;;;;;;;3.13;2.70;;;8.40;89.70;;;;;;5034060;28;20053;-68
2023/01/06 04:07:43;;;;;;;3.05;2.63;;;8.40;89.80;;;;;;5033653;28;20025;-67
2023/01/06 04:10:10;;;;;;;3.20;2.90;;;8.40;89.90;;;;;;5033449;28;20026;-68
2023/01/06 04:12:38;;;;;;;2.55;2.35;;;8.40;90.00;;;;;;5032805;28;20037;-66
2023/01/06 04:15:12;;;;;;;2.80;2.58;;;8.40;90.00;;;;;;5033535;28;20074;-66
2023/01/06 04:17:39;;;;;;;3.35;2.55;;;8.30;90.10;;;;;;5033742;28;20445;-59
2023/01/06 04:20:07;;;;;;;2.80;2.60;;;8.30;90.20;;;;;;5033629;28;20472;-59
2023/01/06 04:22:32;;;;;;;2.67;2.47;;;8.30;90.20;;;;;;5033592;28;20037;-54
2023/01/06 04:24:58;;;;;;;2.22;2.10;;;8.30;90.20;;;;;;5032971;28;20585;-55
2023/01/06 04:27:23;;;;;;;2.65;2.05;;;8.20;90.00;;;;;;5033640;28;20041;-59
2023/01/06 04:29:49;;;;;;;2.03;1.92;;;8.20;89.80;;;;;;5028091;28;20034;-58
2023/01/06 04:32:15;;;;;;;1.83;1.73;;;8.10;89.60;;;;;;5033226;28;20060;-48
2023/01/06 04:34:40;;;;;;;1.80;1.70;;;8.00;89.60;;;;;;5033307;28;20602;-50
2023/01/06 04:37:06;;;;;;;2.28;2.08;;;7.90;89.60;;;;;;5043507;28;20029;-72
2023/01/06 04:39:32;;;;;;;2.10;2.00;;;7.80;89.60;;;;;;5042321;28;20044;-71
2023/01/06 04:41:57;;;;;;;1.85;1.75;;;7.80;89.70;;;;;;5033963;28;20033;-57
2023/01/06 04:44:24;;;;;;;2.17;2.08;;;7.70;89.50;;;;;;5033342;28;20033;-58
2023/01/06 04:46:49;;;;;;;2.00;1.90;;;7.70;89.50;;;;;;5031421;28;20021;-59
2023/01/06 04:49:15;;;;;;;2.00;1.90;;;7.60;89.70;;;;;;5033178;28;20384;-59
2023/01/06 04:51:41;;;;;;;2.50;2.30;;;7.60;89.70;;;;;;5033152;28;20116;-59
2023/01/06 04:54:06;;;;;;;2.35;2.20;;;7.60;89.60;;;;;;5034686;28;20112;-58
2023/01/06 04:56:32;;;;;;;2.22;2.13;;;7.50;89.30;;;;;;5037142;28;20112;-67
2023/01/06 04:58:58;;;;;;;1.80;1.70;;;7.50;89.00;;;;;;5035058;28;20065;-67
2023/01/06 05:01:25;;;;;;;1.80;1.70;;;7.40;88.70;;;;;;5031838;28;20380;-57
2023/01/06 05:03:51;;;;;;;1.90;1.80;;;7.40;88.50;;;;;;5032503;28;20420;-57
2023/01/06 05:06:18;;;;;;;2.20;2.10;;;7.30;88.10;;;;;;5032932;28;20065;-59
2023/01/06 05:08:44;;;;;;;1.90;1.80;;;7.20;87.80;;;;;;5031773;28;20029;-59
2023/01/06 05:11:21;;;;;;;1.88;1.77;;;7.10;87.60;;;;;;5017986;28;20034;-59
2023/01/06 05:13:48;;;;;;;2.10;2.00;;;7.10;87.30;;;;;;5028971;28;20029;-59
2023/01/06 05:16:22;;;;;;;2.05;1.95;;;7.00;87.40;;;;;;5032100;28;20037;-53
2023/01/06 05:18:48;;;;;;;1.90;1.80;;;6.90;87.30;;;;;;5030312;28;20365;-54
2023/01/06 05:21:13;;;;;;;2.05;1.95;;;6.90;87.30;;;;;;5031753;28;20392;-50
2023/01/06 05:23:39;;;;;;;2.15;1.98;;;6.80;87.10;;;;;;5029444;28;20041;-54
2023/01/06 05:26:05;;;;;;;1.90;1.80;;;6.70;87.00;;;;;;5030863;28;20158;-66
2023/01/06 05:28:31;;;;;;;1.95;1.85;;;6.70;87.10;;;;;;5031860;28;20030;-68
2023/01/06 05:31:02;;;;;;;2.00;1.90;;;6.70;87.00;;;;;;5030671;28;20628;-65
2023/01/06 05:33:28;;;;;;;2.20;2.10;;;6.60;86.80;;;;;;5031159;28;20108;-62
2023/01/06 05:36:05;;;;;;;2.38;2.17;;;6.50;86.70;;;;;;5030089;28;20441;-59
2023/01/06 05:38:31;;;;;;;2.17;2.08;;;6.50;86.50;;;;;;5032069;28;20426;-59
2023/01/06 05:40:57;;;;;;;2.03;1.92;;;6.40;86.50;;;;;;5031865;28;20104;-59
2023/01/06 05:43:24;;;;;;;2.35;2.20;;;6.30;86.20;;;;;;5023743;28;20034;-59
2023/01/06 05:45:50;;;;;;;2.90;2.70;;;6.20;85.60;;;;;;5026432;28;20080;-53
2023/01/06 05:48:15;;;;;;;2.67;2.47;;;6.10;85.20;;;;;;5030504;28;20499;-53
2023/01/06 05:50:41;;;;;;;2.75;2.55;;;6.10;85.00;;;;;;5027743;28;20080;-59
2023/01/06 05:53:07;;;;;;;2.78;2.58;;;5.90;85.10;;;;;;5032739;28;20033;-58
2023/01/06 05:55:32;;;;;;;3.10;2.80;;;5.90;85.10;;;;;;5027986;28;20120;-59
2023/01/06 05:57:58;;;;;;;3.13;2.83;;;5.90;85.10;;;;;;5027734;28;20053;-58
2023/01/06 06:00:24;;;;;;;3.33;3.05;;;5.80;84.90;;;;;;5029101;28;20040;-53
2023/01/06 06:02:49;;;;;;;2.72;2.50;;;5.70;84.90;;;;;;5035107;28;20099;-49
2023/01/06 06:05:15;;;;;;;3.00;2.70;;;5.70;85.00;;;;;;5028726;28;20029;-49
2023/01/06 06:07:41;;;;;;;3.42;3.13;;;5.70;85.00;;;;;;5031574;28;20033;-51
2023/01/06 06:10:08;;;;;;;2.92;2.72;;;5.70;84.90;;;;;;5027192;28;20033;-48
2023/01/06 06:12:34;;;;;;;3.17;2.88;;;5.60;85.50;;;;;;5031097;28;20075;-48
2023/01/06 06:15:00;;;;;;;3.00;2.70;;;5.60;85.00;;;;;;5031281;28;20075;-46
2023/01/06 06:17:26;;;;;;;3.33;3.03;;;5.60;85.10;;;;;;5030276;28;20034;-47
2023/01/06 06:19:51;;;;;;;3.35;3.00;;;5.60;85.00;;;;;;5030467;28;20388;-47
2023/01/06 06:22:17;;;;;;;2.92;2.72;;;5.60;84.70;;;;;;5028363;28;20037;-47
2023/01/06 06:24:43;;;;;;;3.28;2.97;;;5.60;84.70;;;;;;5030567;28;20086;-48
2023/01/06 06:27:08;;;;;;;2.90;2.70;;;5.60;85.00;;;;;;5030794;28;20029;-49
2023/01/06 06:29:34;;;;;;;3.10;2.80;;;5.60;85.00;;;;;;5024512;28;20033;-54
2023/01/06 06:32:00;;;;;;;3.17;2.92;;;5.60;85.10;;;;;;5027732;28;20045;-52
2023/01/06 06:34:25;;;;;;;2.88;2.65;;;5.60;85.20;;;;;;5029897;28;20044;-52
2023/01/06 06:36:51;;;;;;;3.28;2.97;;;5.60;85.10;;;;;;5033532;28;20060;-55
2023/01/06 06:39:17;;;;;;;3.17;2.88;;;5.60;85.00;;;;;;5032091;28;20047;-52
2023/01/06 06:41:43;;;;;;;3.70;3.08;;;5.60;85.00;;;;;;5030595;28;20025;-52
2023/01/06 06:44:08;;;;;;;3.50;3.17;;;5.60;84.90;;;;;;5030401;28;20052;-51
2023/01/06 06:46:34;;;;;;;3.33;3.03;;;5.60;84.60;;;;;;5026891;28;20030;-53
2023/01/06 06:49:00;;;;;;;4.15;3.17;;;5.60;84.10;;;;;;5030253;28;20025;-52
2023/01/06 06:51:25;;;;;;;3.63;3.33;;;5.50;83.40;;;;;;5029851;28;20029;-51
2023/01/06 06:53:51;;;;;;;3.53;3.22;;;5.50;83.40;;;;;;5031966;28;20089;-48
2023/01/06 06:56:18;;;;;;;3.55;3.25;;;5.50;83.30;;;;;;5030519;28;20033;-48
2023/01/06 06:58:44;;;;;;;4.20;3.55;;;5.40;83.10;;;;;;5032404;28;20033;-56
2023/01/06 07:01:13;;;;;;;3.83;3.42;;;5.40;82.90;;;;;;5027981;28;20028;-51
2023/01/06 07:03:39;;;;;;;3.97;3.58;;;5.30;82.70;;;;;;5025088;28;20115;-55
2023/01/06 07:06:07;;;;;;;4.25;3.85;;;5.30;82.30;;;;;;5023259;28;20033;-53
2023/01/06 07:08:33;;;;;;;4.30;3.80;;;5.30;82.30;;;;;;5015956;28;20029;-54
2023/01/06 07:10:59;;;;;;;4.15;3.75;;;5.20;82.50;;;;;;5030204;28;20080;-49
2023/01/06 07:13:24;;;;;;;4.45;4.00;;;5.20;82.50;;;;;;5029114;28;20029;-51
2023/01/06 07:15:50;;;;;;;4.43;3.90;;;5.20;82.50;;;;;;5028649;28;20061;-50
2023/01/06 07:18:17;;;;;;;5.13;4.60;;;5.20;82.60;;;;;;5028001;28;20547;-49
2023/01/06 07:20:47;;;;;;;4.32;3.92;;;5.20;82.50;;;;;;5030108;28;20022;-54
2023/01/06 07:23:13;;;;;;;4.73;4.30;;;5.20;82.50;;;;;;5024111;28;20116;-56
2023/01/06 07:25:39;;;;;;;4.63;4.13;;;5.20;82.60;;;;;;5032459;28;20473;-65
2023/01/06 07:28:06;;;;;;;4.93;4.30;;;5.20;82.90;;;;;;5033138;28;20112;-64
2023/01/06 07:30:32;;;;;;;4.65;4.22;;;5.20;82.80;;;;;;5026966;28;20021;-51
2023/01/06 07:32:58;;;;;;;5.40;4.65;;;5.20;82.90;;;;;;5029555;28;20430;-53
2023/01/06 07:35:24;;;;;;;5.22;4.72;;;5.20;82.70;;;;;;5029686;28;20032;-52
2023/01/06 07:37:49;;;;;;;6.20;5.00;;;5.20;82.80;;;;;;5030818;28;20410;-53
2023/01/06 07:40:16;;;;;;;6.00;5.25;;;5.20;82.60;;;;;;5021218;28;20029;-53
2023/01/06 07:42:42;;;;;;;5.82;5.18;;;5.20;82.50;;;;;;5023399;28;20044;-55
2023/01/06 07:45:09;;;;;;;6.13;5.30;;;5.20;82.50;;;;;;5024215;28;20038;-52
2023/01/06 07:47:34;;;;;;;6.43;4.97;;;5.20;82.50;;;;;;5023138;28;20057;-52
2023/01/06 07:50:01;;;;;;;5.40;4.65;;;5.20;82.40;;;;;;5023383;28;20033;-51
2023/01/06 07:52:26;;;;;;;5.07;4.40;;;5.20;82.20;;;;;;5027791;28;20041;-59
2023/01/06 07:54:52;;;;;;;5.70;4.93;;;5.20;82.40;;;;;;5029265;28;20697;-60
2023/01/06 07:57:18;;;;;;;6.10;5.40;;;5.20;82.20;;;;;;5024296;28;20027;-64
2023/01/06 07:59:43;;;;;;;6.88;5.07;;;5.10;82.00;;;;;;5025797;28;20080;-64
2023/01/06 08:02:10;;;;;;;5.95;5.35;;;5.10;81.80;;;;;;5021498;28;20153;-60
2023/01/06 08:04:36;;;;;;;6.28;5.47;;;5.10;81.80;;;;;;5017811;28;20045;-59
2023/01/06 08:07:02;;;;;;;5.68;5.05;;;5.10;81.90;;;;;;5021442;28;20034;-63
2023/01/06 08:09:27;;;;;;;5.95;5.35;;;5.10;81.70;;;;;;5025148;28;20049;-64
2023/01/06 08:11:53;;;;;;;6.63;5.93;;;5.10;81.90;;;;;;5017440;28;20103;-58
2023/01/06 08:14:19;;;;;;;7.70;5.78;;;5.00;81.70;;;;;;5015106;28;20596;-59
2023/01/06 08:16:44;;;;;;;6.30;5.40;;;5.10;81.40;;;;;;5021791;28;20029;-61
2023/01/06 08:19:10;;;;;;;6.38;5.35;;;5.00;81.30;;;;;;5016749;28;20075;-63
2023/01/06 08:21:35;;;;;;;5.68;5.07;;;5.00;81.60;;;;;;5019831;28;20029;-63
2023/01/06 08:24:01;;;;;;;5.97;4.78;;;5.10;81.70;;;;;;5019544;28;20488;-70
2023/01/06 08:26:26;;;;;;;5.47;4.80;;;5.10;81.60;;;;;;5036457;28;20053;-67
2023/01/06 08:28:53;;;;;;;5.40;4.65;;;5.10;81.60;;;;;;5023030;28;20029;-72
2023/01/06 08:31:20;;;;;;;5.22;4.40;;;5.10;81.60;;;;;;5020518;28;20021;-55
2023/01/06 08:33:46;;;;;;;6.00;4.63;;;5.20;81.60;;;;;;5013025;28;20049;-51
2023/01/06 08:36:14;;;;;;;6.80;4.55;;;5.20;81.40;;;;;;5017955;28;20037;-59
2023/01/06 08:38:40;;;;;;;5.00;4.38;;;5.20;81.40;;;;;;5014077;28;20030;-58
2023/01/06 08:41:06;;;;;;;4.90;4.40;;;5.30;81.40;;;;;;5015226;28;20072;-58
2023/01/06 08:43:32;;;;;;;4.72;4.22;;;5.30;81.20;;;;;;5016471;28;20037;-60
2023/01/06 08:45:59;;;;;;;5.00;4.40;;;5.30;81.40;;;;;;5016474;28;20067;-57
2023/01/06 08:48:26;;;;;;;5.35;4.30;;;5.30;81.60;;;;;;5019205;28;20029;-58
2023/01/06 08:50:51;;;;;;;4.80;4.15;;;5.30;81.70;;;;;;5007767;28;20414;-57
2023/01/06 08:53:17;;;;;;;4.30;3.90;;;5.30;81.90;;;;;;5016648;28;20037;-55
2023/01/06 08:55:43;;;;;;;4.18;3.70;;;5.20;82.00;;;;;;5018818;28;20034;-58
2023/01/06 08:58:09;;;;;;;5.03;4.18;;;5.20;82.10;;;;;;5017569;28;20126;-57
2023/01/06 09:00:38;;;;;;;3.97;3.58;;;5.10;81.90;;;;;;5016174;28;20090;-59
2023/01/06 09:03:03;;;;;;;5.60;4.40;;;5.00;81.80;;;;;;5010608;28;20072;-60
2023/01/06 09:05:29;;;;;;;5.07;4.20;;;5.00;81.90;;;;;;5016515;28;20430;-64
2023/01/06 09:07:55;;;;;;;4.45;4.00;;;4.90;81.60;;;;;;5010744;28;20044;-65
2023/01/06 09:10:21;;;;;;;6.20;4.82;;;4.90;81.60;;;;;;5013959;28;20095;-66
2023/01/06 09:12:47;;;;;;;5.55;4.63;;;4.80;81.50;;;;;;5010318;28;20041;-66
2023/01/06 09:15:13;;;;;;;5.03;4.28;;;4.80;81.50;;;;;;5014957;28;20041;-60
2023/01/06 09:17:38;;;;;;;5.40;4.45;;;4.80;81.60;;;;;;5017798;28;20049;-58
2023/01/06 09:20:04;;;;;;;5.30;4.15;;;4.70;81.50;;;;;;5019751;28;20511;-58
2023/01/06 09:22:30;;;;;;;4.65;4.07;;;4.70;81.40;;;;;;5021155;28;20134;-57
2023/01/06 09:24:56;;;;;;;5.05;3.95;;;4.70;81.70;;;;;;5016712;28;20124;-57
2023/01/06 09:27:22;;;;;;;4.68;4.22;;;4.80;82.40;;;;;;5020088;28;20044;-60
2023/01/06 09:29:47;;;;;;;5.65;4.43;;;4.80;81.90;;;;;;5022842;28;20029;-68
2023/01/06 09:32:13;;;;;;;5.82;5.00;;;4.70;81.30;;;;;;5021924;28;20111;-58
2023/01/06 09:34:39;;;;;;;6.85;5.03;;;4.70;81.10;;;;;;5015952;28;20025;-58
2023/01/06 09:37:04;;;;;;;5.97;4.82;;;4.70;80.90;;;;;;5017277;28;20033;-65
2023/01/06 09:39:30;;;;;;;5.93;4.97;;;4.70;80.90;;;;;;5013680;28;20456;-63
2023/01/06 09:42:33;;;;;;;6.18;4.75;;;4.60;80.80;;;;;;5013428;28;20052;-55
2023/01/06 09:45:08;;;;;;;6.03;4.90;;;4.60;80.40;;;;;;5010796;28;20041;-57
2023/01/06 09:47:50;;;;;;;5.85;4.80;;;4.60;80.20;;;;;;5012469;28;20164;-56
2023/01/06 09:50:28;;;;;;;6.30;5.18;;;4.60;80.10;;;;;;5012904;28;20068;-58
2023/01/06 09:53:05;;;;;;;4.95;4.28;;;4.60;80.20;;;;;;5047621;28;20091;-54
2023/01/06 09:55:39;;;;;;;5.68;4.28;;;4.60;79.60;;;;;;5028659;28;20025;-58
2023/01/06 09:58:08;;;;;;;4.80;3.97;;;4.60;78.90;;;;;;5020719;28;20033;-56
2023/01/06 10:00:37;;;;;;;5.35;3.92;;;4.60;78.40;;;;;;5020513;28;20308;-53
2023/01/06 10:03:03;;;;;;;4.60;3.88;;;4.60;78.60;;;;;;5016394;28;20065;-54
2023/01/06 10:05:52;;;;;;;5.05;4.15;;;4.60;77.90;;;;;;5018123;28;20047;-52
2023/01/06 10:08:25;;;;;;;4.60;3.83;;;4.50;76.90;;;;;;5019870;28;20037;-53
2023/01/06 10:11:09;;;;;;;5.43;4.07;;;4.50;76.80;;;;;;5023170;28;20048;-53
2023/01/06 10:14:09;;;;;;;5.18;4.45;;;4.40;76.70;;;;;;5020842;28;20045;-55
2023/01/06 10:17:00;;;;;;;4.90;4.30;;;4.40;76.70;;;;;;5019875;28;20033;-54
2023/01/06 10:19:26;;;;;;;4.93;4.00;;;4.40;76.80;;;;;;5023062;28;20116;-55
2023/01/06 10:22:22;;;;;;;5.00;4.43;;;4.30;76.80;;;;;;5019389;28;20037;-50
2023/01/06 10:25:15;;;;;;;5.13;4.03;;;4.30;76.70;;;;;;5014940;28;20060;-54
2023/01/06 10:27:57;;;;;;;4.63;4.10;;;4.30;77.00;;;;;;5016443;28;20496;-50
2023/01/06 10:30:46;;;;;;;5.30;4.43;;;4.30;77.20;;;;;;5018718;28;20095;-52
2023/01/06 10:33:24;;;;;;;5.43;4.18;;;4.30;77.20;;;;;;5018884;28;20041;-55
2023/01/06 10:35:51;;;;;;;5.05;4.28;;;4.30;76.90;;;;;;5019110;28;20515;-49
2023/01/06 10:38:21;;;;;;;5.05;4.10;;;4.30;76.60;;;;;;5017446;28;20270;-53
2023/01/06 10:40:47;;;;;;;4.20;3.60;;;4.30;76.50;;;;;;5010007;28;20044;-54
2023/01/06 10:43:13;;;;;;;4.68;4.10;;;4.30;76.60;;;;;;5005325;28;20703;-53
2023/01/06 10:45:46;;;;;;;4.95;4.45;;;4.30;76.90;;;;;;5007377;28;20025;-52
2023/01/06 10:48:23;;;;;;;4.88;3.83;;;4.30;76.80;;;;;;5014189;28;20037;-52
2023/01/06 10:50:49;;;;;;;4.60;4.05;;;4.30;76.50;;;;;;5017668;28;20033;-50
2023/01/06 10:53:15;;;;;;;5.40;4.25;;;4.30;76.60;;;;;;5013256;28;20324;-55
2023/01/06 10:55:57;;;;;;;4.75;4.18;;;4.30;76.50;;;;;;5011495;28;20171;-49
2023/01/06 10:58:37;;;;;;;5.03;4.40;;;4.30;76.40;;;;;;5021360;28;20099;-52
2023/01/06 11:01:17;;;;;;;5.50;4.20;;;4.30;76.40;;;;;;5021194;28;20025;-56
2023/01/06 11:03:44;;;;;;;5.22;4.22;;;4.30;76.30;;;;;;5018197;28;20046;-52
2023/01/06 11:06:29;;;;;;;4.45;3.90;;;4.30;76.40;;;;;;5019589;28;20021;-52
2023/01/06 11:08:55;;;;;;;5.93;4.47;;;4.30;76.60;;;;;;5021014;28;20028;-56
2023/01/06 11:11:21;;;;;;;5.18;3.97;;;4.30;76.70;;;;;;5012904;28;20040;-56
2023/01/06 11:13:53;;;;;;;5.00;4.20;;;4.40;76.80;;;;;;5005510;28;20041;-59
2023/01/06 11:16:20;;;;;;;;;;;4.40;76.80;;;;;;5010460;28;20923;-53
2023/01/06 11:18:51;;;;;;;5.38;4.32;;;4.30;76.30;;;;;;5019182;28;20364;-54
2023/01/06 11:21:17;;;;;;;6.65;5.18;;;4.30;77.00;;;;;;5021925;28;20026;-56
2023/01/06 11:23:45;;;;;;;6.40;5.22;;;4.30;77.10;;;;;;5017225;28;20582;-55
2023/01/06 11:26:11;;;;;;;6.05;4.80;;;4.30;77.30;;;;;;5016937;28;20104;-47
2023/01/06 11:28:38;;;;;;;6.35;5.30;;;4.30;77.20;;;;;;5021132;28;20543;-52
2023/01/06 11:31:20;;;;;;;6.70;5.22;;;4.30;77.40;;;;;;5028045;28;20040;-52
2023/01/06 11:33:56;;;;;;;6.47;5.45;;;4.20;77.40;;;;;;5014064;28;20037;-55
2023/01/06 11:36:25;;;;;;;7.40;5.45;;;4.20;77.80;;;;;;5016722;28;20478;-52
2023/01/06 11:39:01;;;;;;;7.30;5.68;;;4.10;77.00;;;;;;5021098;28;20039;-55
2023/01/06 11:41:37;;;;;;;6.50;5.35;;;4.10;77.10;;;;;;5025164;28;20122;-51
2023/01/06 11:44:06;;;;;;;7.10;5.70;;;4.00;77.20;;;;;;5017069;28;20095;-52
2023/01/06 11:46:32;;;;;;;7.20;5.90;;;4.00;77.40;;;;;;5009525;28;20111;-67
2023/01/06 11:49:06;;;;;;;7.13;5.55;;;3.90;77.30;;;;;;5010941;28;20052;-61
2023/01/06 11:51:50;;;;;;;6.40;5.70;;;3.90;77.40;;;;;;5017202;28;20029;-66
2023/01/06 11:54:24;;;;;;;6.72;5.55;;;3.80;77.30;;;;;;5024445;28;20056;-65
2023/01/06 11:56:59;;;;;;;8.27;6.18;;;3.80;77.40;;;;;;5025659;28;20033;-57
2023/01/06 11:59:33;;;;;;;6.88;5.88;;;3.80;77.60;;;;;;5020528;28;20079;-57
2023/01/06 12:01:59;;;;;;;6.55;5.40;;;3.70;77.50;;;;;;5007830;28;20045;-58
2023/01/06 12:04:57;;;;;;;6.55;5.22;;;3.70;77.70;;;;;;5018173;28;20048;-56
2023/01/06 12:07:50;;;;;;;6.28;5.50;;;3.70;77.70;;;;;;5006058;28;20042;-55
2023/01/06 12:10:21;;;;;;;7.38;5.65;;;3.70;77.90;;;;;;5020785;28;20040;-57
2023/01/06 12:12:47;;;;;;;7.78;5.88;;;3.60;78.00;;;;;;5020638;28;20063;-57
2023/01/06 12:15:15;;;;;;;6.85;5.50;;;3.60;77.70;;;;;;5022510;28;20033;-56
2023/01/06 12:17:45;;;;;;;6.25;5.03;;;3.60;77.60;;;;;;5020657;28;20030;-57
2023/01/06 12:20:46;;;;;;;6.07;5.13;;;3.50;77.40;;;;;;5019473;28;20029;-57
2023/01/06 12:23:34;;;;;;;7.20;5.65;;;3.50;77.60;;;;;;5019067;28;20068;-56
2023/01/06 12:26:04;;;;;;;6.70;5.40;;;3.50;77.60;;;;;;5018897;28;20152;-57
2023/01/06 12:28:34;;;;;;;7.65;6.05;;;3.50;77.90;;;;;;5014443;28;20057;-55
2023/01/06 12:31:18;;;;;;;6.28;5.25;;;3.50;77.90;;;;;;5022921;28;20034;-55
2023/01/06 12:33:49;;;;;;;6.78;5.47;;;3.50;77.80;;;;;;5025312;28;20050;-59
2023/01/06 12:36:29;;;;;;;6.70;5.65;;;3.50;77.90;;;;;;5021430;28;20037;-56
2023/01/06 12:38:59;;;;;;;6.43;5.63;;;3.50;77.80;;;;;;5022789;28;20029;-56
2023/01/06 12:41:36;;;;;;;6.60;5.75;;;3.50;77.90;;;;;;5025243;28;20136;-62
2023/01/06 12:44:17;;;;;;;7.75;5.75;;;3.50;77.60;;;;;;5022905;28;20522;-62
2023/01/06 12:47:09;;;;;;;7.03;5.70;;;3.50;77.60;;;;;;5021833;28;20029;-56
2023/01/06 12:49:40;;;;;;;7.55;5.88;;;3.40;77.50;;;;;;5020752;28;20441;-55
2023/01/06 12:52:23;;;;;;;6.47;5.75;;;3.40;77.50;;;;;;5020252;28;20472;-50
2023/01/06 12:54:56;;;;;;;6.75;5.55;;;3.40;77.50;;;;;;5017160;28;20524;-58
2023/01/06 12:57:45;;;;;;;7.65;6.57;;;3.30;77.50;;;;;;5034021;28;20029;-64
2023/01/06 13:00:47;;;;;;;6.72;5.43;;;3.30;77.30;;;;;;5021916;28;20037;-65
2023/01/06 13:03:19;;;;;;;6.38;5.65;;;3.30;77.50;;;;;;5019316;28;20037;-55
2023/01/06 13:05:54;;;;;;;6.88;5.95;;;3.30;77.60;;;;;;5022941;28;20120;-59
2023/01/06 13:08:49;;;;;;;7.15;5.90;;;3.30;77.40;;;;;;5018272;28;20029;-58
2023/01/06 13:11:38;;;;;;;6.05;5.45;;;3.30;77.50;;;;;;5017899;28;20213;-58
2023/01/06 13:14:19;;;;;;;8.70;7.53;;;3.30;77.20;;;;;;5021891;28;20099;-57
2023/01/06 13:17:03;;;;;;;8.00;6.50;;;3.30;77.30;;;;;;5017586;28;20038;-58
2023/01/06 13:19:28;;;;;;;6.72;5.70;;;3.30;76.90;;;;;;5020787;28;20034;-59